sensor_id;sensor_type;location;lat;lon;timestamp;pressure;altitude;pressure_sealevel;temperature
68588;BMP180;55560;52.174;20.996;2022-09-09T00:12:47;100317.60;;;13.10
68588;BMP180;55560;52.174;20.996;2022-09-09T00:15:23;100309.80;;;13.00
68588;BMP180;55560;52.174;20.996;2022-09-09T00:21:14;100306.20;;;12.90
68588;BMP180;55560;52.174;20.996;2022-09-09T00:23:50;100299.00;;;12.80
68588;BMP180;55560;52.174;20.996;2022-09-09T00:26:42;100305.40;;;12.80
68588;BMP180;55560;52.174;20.996;2022-09-09T00:29:31;100302.20;;;12.80
68588;BMP180;55560;52.174;20.996;2022-09-09T00:32:12;100305.20;;;12.70
68588;BMP180;55560;52.174;20.996;2022-09-09T00:34:50;100305.60;;;12.60
68588;BMP180;55560;52.174;20.996;2022-09-09T00:37:20;100305.60;;;12.60
68588;BMP180;55560;52.174;20.996;2022-09-09T00:39:50;100302.20;;;12.56
68588;BMP180;55560;52.174;20.996;2022-09-09T00:42:41;100307.20;;;12.50
68588;BMP180;55560;52.174;20.996;2022-09-09T00:45:39;100311.00;;;12.50
68588;BMP180;55560;52.174;20.996;2022-09-09T00:48:11;100308.40;;;12.40
68588;BMP180;55560;52.174;20.996;2022-09-09T00:50:59;100308.20;;;12.40
68588;BMP180;55560;52.174;20.996;2022-09-09T00:56:39;100317.60;;;12.40
68588;BMP180;55560;52.174;20.996;2022-09-09T00:59:48;100315.00;;;12.32
68588;BMP180;55560;52.174;20.996;2022-09-09T01:05:33;100314.20;;;12.40
68588;BMP180;55560;52.174;20.996;2022-09-09T01:08:12;100316.60;;;12.40
68588;BMP180;55560;52.174;20.996;2022-09-09T01:10:51;100317.20;;;12.40
68588;BMP180;55560;52.174;20.996;2022-09-09T01:13:32;100314.60;;;12.40
68588;BMP180;55560;52.174;20.996;2022-09-09T01:16:10;100317.40;;;12.40
68588;BMP180;55560;52.174;20.996;2022-09-09T01:18:47;100311.60;;;12.40
68588;BMP180;55560;52.174;20.996;2022-09-09T01:21:57;100301.00;;;12.40
68588;BMP180;55560;52.174;20.996;2022-09-09T01:24:38;100295.20;;;12.40
68588;BMP180;55560;52.174;20.996;2022-09-09T01:27:21;100293.20;;;12.40
68588;BMP180;55560;52.174;20.996;2022-09-09T01:29:51;100292.20;;;12.40
68588;BMP180;55560;52.174;20.996;2022-09-09T01:38:00;100287.00;;;12.44
68588;BMP180;55560;52.174;20.996;2022-09-09T01:40:28;100291.20;;;12.40
68588;BMP180;55560;52.174;20.996;2022-09-09T01:42:57;100292.40;;;12.40
68588;BMP180;55560;52.174;20.996;2022-09-09T01:45:25;100289.40;;;12.40
68588;BMP180;55560;52.174;20.996;2022-09-09T01:47:53;100292.00;;;12.40
68588;BMP180;55560;52.174;20.996;2022-09-09T01:50:47;100291.80;;;12.40
68588;BMP180;55560;52.174;20.996;2022-09-09T01:53:17;100296.40;;;12.40
68588;BMP180;55560;52.174;20.996;2022-09-09T01:56:10;100301.80;;;12.40
68588;BMP180;55560;52.174;20.996;2022-09-09T01:59:18;100300.20;;;12.40
68588;BMP180;55560;52.174;20.996;2022-09-09T02:02:19;100294.80;;;12.40
68588;BMP180;55560;52.174;20.996;2022-09-09T02:08:36;100289.00;;;12.50
68588;BMP180;55560;52.174;20.996;2022-09-09T02:11:15;100287.80;;;12.48
68588;BMP180;55560;52.174;20.996;2022-09-09T02:13:49;100289.00;;;12.50
68588;BMP180;55560;52.174;20.996;2022-09-09T02:16:26;100290.40;;;12.50
68588;BMP180;55560;52.174;20.996;2022-09-09T02:19:23;100287.20;;;12.50
68588;BMP180;55560;52.174;20.996;2022-09-09T02:22:05;100287.60;;;12.50
68588;BMP180;55560;52.174;20.996;2022-09-09T02:24:37;100285.60;;;12.50
68588;BMP180;55560;52.174;20.996;2022-09-09T02:27:17;100281.00;;;12.50
68588;BMP180;55560;52.174;20.996;2022-09-09T02:29:46;100279.20;;;12.50
68588;BMP180;55560;52.174;20.996;2022-09-09T02:32:21;100281.20;;;12.50
68588;BMP180;55560;52.174;20.996;2022-09-09T02:34:55;100278.40;;;12.50
68588;BMP180;55560;52.174;20.996;2022-09-09T02:37:28;100277.60;;;12.50
68588;BMP180;55560;52.174;20.996;2022-09-09T02:39:58;100279.60;;;12.50
68588;BMP180;55560;52.174;20.996;2022-09-09T02:42:26;100285.60;;;12.50
68588;BMP180;55560;52.174;20.996;2022-09-09T02:44:55;100282.60;;;12.50
68588;BMP180;55560;52.174;20.996;2022-09-09T02:47:34;100291.00;;;12.58
68588;BMP180;55560;52.174;20.996;2022-09-09T02:50:19;100290.00;;;12.54
68588;BMP180;55560;52.174;20.996;2022-09-09T02:53:23;100290.00;;;12.50
68588;BMP180;55560;52.174;20.996;2022-09-09T02:56:13;100298.00;;;12.50
68588;BMP180;55560;52.174;20.996;2022-09-09T02:58:44;100297.40;;;12.50
68588;BMP180;55560;52.174;20.996;2022-09-09T03:01:12;100295.00;;;12.50
68588;BMP180;55560;52.174;20.996;2022-09-09T03:03:41;100293.40;;;12.50
68588;BMP180;55560;52.174;20.996;2022-09-09T03:06:13;100294.60;;;12.50
68588;BMP180;55560;52.174;20.996;2022-09-09T03:08:42;100301.60;;;12.50
68588;BMP180;55560;52.174;20.996;2022-09-09T03:11:18;100297.00;;;12.50
68588;BMP180;55560;52.174;20.996;2022-09-09T03:13:45;100292.40;;;12.50
68588;BMP180;55560;52.174;20.996;2022-09-09T03:16:13;100290.20;;;12.50
68588;BMP180;55560;52.174;20.996;2022-09-09T03:18:44;100286.60;;;12.50
68588;BMP180;55560;52.174;20.996;2022-09-09T03:21:13;100281.80;;;12.50
68588;BMP180;55560;52.174;20.996;2022-09-09T03:23:42;100279.40;;;12.50
68588;BMP180;55560;52.174;20.996;2022-09-09T03:26:10;100278.20;;;12.50
68588;BMP180;55560;52.174;20.996;2022-09-09T03:28:42;100277.60;;;12.50
68588;BMP180;55560;52.174;20.996;2022-09-09T03:31:11;100276.80;;;12.50
68588;BMP180;55560;52.174;20.996;2022-09-09T03:33:40;100276.20;;;12.50
68588;BMP180;55560;52.174;20.996;2022-09-09T03:36:14;100277.80;;;12.50
68588;BMP180;55560;52.174;20.996;2022-09-09T03:38:43;100273.40;;;12.50
68588;BMP180;55560;52.174;20.996;2022-09-09T03:41:11;100272.00;;;12.50
68588;BMP180;55560;52.174;20.996;2022-09-09T03:43:40;100277.00;;;12.50
68588;BMP180;55560;52.174;20.996;2022-09-09T03:46:10;100278.00;;;12.50
68588;BMP180;55560;52.174;20.996;2022-09-09T03:48:38;100283.40;;;12.50
68588;BMP180;55560;52.174;20.996;2022-09-09T03:51:06;100290.00;;;12.50
68588;BMP180;55560;52.174;20.996;2022-09-09T03:53:34;100288.80;;;12.50
68588;BMP180;55560;52.174;20.996;2022-09-09T03:56:05;100290.20;;;12.50
68588;BMP180;55560;52.174;20.996;2022-09-09T03:58:35;100289.40;;;12.54
68588;BMP180;55560;52.174;20.996;2022-09-09T04:01:14;100286.00;;;12.50
68588;BMP180;55560;52.174;20.996;2022-09-09T04:03:44;100285.40;;;12.50
68588;BMP180;55560;52.174;20.996;2022-09-09T04:06:13;100282.00;;;12.50
68588;BMP180;55560;52.174;20.996;2022-09-09T04:08:44;100281.60;;;12.50
68588;BMP180;55560;52.174;20.996;2022-09-09T04:11:15;100282.20;;;12.52
68588;BMP180;55560;52.174;20.996;2022-09-09T04:13:44;100286.60;;;12.56
68588;BMP180;55560;52.174;20.996;2022-09-09T04:16:13;100287.60;;;12.56
68588;BMP180;55560;52.174;20.996;2022-09-09T04:18:43;100288.20;;;12.60
68588;BMP180;55560;52.174;20.996;2022-09-09T04:21:11;100282.60;;;12.60
68588;BMP180;55560;52.174;20.996;2022-09-09T04:23:41;100281.20;;;12.60
68588;BMP180;55560;52.174;20.996;2022-09-09T04:26:09;100284.20;;;12.60
68588;BMP180;55560;52.174;20.996;2022-09-09T04:28:37;100283.20;;;12.70
68588;BMP180;55560;52.174;20.996;2022-09-09T04:31:18;100277.60;;;12.70
68588;BMP180;55560;52.174;20.996;2022-09-09T04:33:48;100280.20;;;12.70
68588;BMP180;55560;52.174;20.996;2022-09-09T04:36:18;100281.60;;;12.70
68588;BMP180;55560;52.174;20.996;2022-09-09T04:38:47;100286.40;;;12.70
68588;BMP180;55560;52.174;20.996;2022-09-09T04:41:17;100288.80;;;12.66
68588;BMP180;55560;52.174;20.996;2022-09-09T04:43:45;100287.00;;;12.68
68588;BMP180;55560;52.174;20.996;2022-09-09T04:46:14;100285.20;;;12.70
68588;BMP180;55560;52.174;20.996;2022-09-09T04:48:43;100288.80;;;12.70
68588;BMP180;55560;52.174;20.996;2022-09-09T04:51:13;100288.40;;;12.70
68588;BMP180;55560;52.174;20.996;2022-09-09T04:53:42;100289.80;;;12.70
68588;BMP180;55560;52.174;20.996;2022-09-09T04:56:14;100288.00;;;12.70
68588;BMP180;55560;52.174;20.996;2022-09-09T04:58:47;100291.80;;;12.70
68588;BMP180;55560;52.174;20.996;2022-09-09T05:01:19;100297.00;;;12.70
68588;BMP180;55560;52.174;20.996;2022-09-09T05:03:51;100300.60;;;12.70
68588;BMP180;55560;52.174;20.996;2022-09-09T05:06:22;100299.60;;;12.70
68588;BMP180;55560;52.174;20.996;2022-09-09T05:08:55;100301.60;;;12.70
68588;BMP180;55560;52.174;20.996;2022-09-09T05:11:31;100306.00;;;12.70
68588;BMP180;55560;52.174;20.996;2022-09-09T05:14:18;100305.00;;;12.70
68588;BMP180;55560;52.174;20.996;2022-09-09T05:16:46;100306.20;;;12.70
68588;BMP180;55560;52.174;20.996;2022-09-09T05:19:15;100302.40;;;12.70
68588;BMP180;55560;52.174;20.996;2022-09-09T05:21:49;100306.60;;;12.70
68588;BMP180;55560;52.174;20.996;2022-09-09T05:24:20;100307.00;;;12.70
68588;BMP180;55560;52.174;20.996;2022-09-09T05:26:52;100306.80;;;12.80
68588;BMP180;55560;52.174;20.996;2022-09-09T05:29:20;100304.00;;;12.80
68588;BMP180;55560;52.174;20.996;2022-09-09T05:31:48;100304.20;;;12.80
68588;BMP180;55560;52.174;20.996;2022-09-09T05:34:19;100307.40;;;12.80
68588;BMP180;55560;52.174;20.996;2022-09-09T05:36:49;100308.00;;;12.80
68588;BMP180;55560;52.174;20.996;2022-09-09T05:39:16;100302.80;;;12.90
68588;BMP180;55560;52.174;20.996;2022-09-09T05:41:44;100307.00;;;12.90
68588;BMP180;55560;52.174;20.996;2022-09-09T05:44:12;100304.40;;;12.90
68588;BMP180;55560;52.174;20.996;2022-09-09T05:46:41;100303.40;;;13.00
68588;BMP180;55560;52.174;20.996;2022-09-09T05:49:09;100302.00;;;13.00
68588;BMP180;55560;52.174;20.996;2022-09-09T05:51:38;100303.80;;;13.00
68588;BMP180;55560;52.174;20.996;2022-09-09T05:54:09;100302.80;;;13.00
68588;BMP180;55560;52.174;20.996;2022-09-09T05:56:40;100304.20;;;13.00
68588;BMP180;55560;52.174;20.996;2022-09-09T05:59:08;100304.60;;;13.00
68588;BMP180;55560;52.174;20.996;2022-09-09T06:01:38;100302.20;;;13.08
68588;BMP180;55560;52.174;20.996;2022-09-09T06:04:10;100308.20;;;13.10
68588;BMP180;55560;52.174;20.996;2022-09-09T06:06:39;100313.00;;;13.10
68588;BMP180;55560;52.174;20.996;2022-09-09T06:09:16;100313.40;;;13.10
68588;BMP180;55560;52.174;20.996;2022-09-09T06:11:44;100315.20;;;13.10
68588;BMP180;55560;52.174;20.996;2022-09-09T06:14:13;100316.20;;;13.10
68588;BMP180;55560;52.174;20.996;2022-09-09T06:16:44;100317.80;;;13.20
68588;BMP180;55560;52.174;20.996;2022-09-09T06:19:18;100321.60;;;13.20
68588;BMP180;55560;52.174;20.996;2022-09-09T06:21:48;100321.80;;;13.20
68588;BMP180;55560;52.174;20.996;2022-09-09T06:24:16;100326.00;;;13.20
68588;BMP180;55560;52.174;20.996;2022-09-09T06:26:47;100330.60;;;13.22
68588;BMP180;55560;52.174;20.996;2022-09-09T06:29:23;100335.20;;;13.20
68588;BMP180;55560;52.174;20.996;2022-09-09T06:31:53;100333.60;;;13.22
68588;BMP180;55560;52.174;20.996;2022-09-09T06:34:22;100331.00;;;13.24
68588;BMP180;55560;52.174;20.996;2022-09-09T06:36:54;100330.40;;;13.30
68588;BMP180;55560;52.174;20.996;2022-09-09T06:39:21;100332.80;;;13.30
68588;BMP180;55560;52.174;20.996;2022-09-09T06:41:49;100330.60;;;13.30
68588;BMP180;55560;52.174;20.996;2022-09-09T06:44:46;100324.80;;;13.30
68588;BMP180;55560;52.174;20.996;2022-09-09T06:47:31;100323.60;;;13.40
68588;BMP180;55560;52.174;20.996;2022-09-09T06:50:01;100326.80;;;13.40
68588;BMP180;55560;52.174;20.996;2022-09-09T06:52:30;100338.40;;;13.40
68588;BMP180;55560;52.174;20.996;2022-09-09T06:54:59;100341.60;;;13.50
68588;BMP180;55560;52.174;20.996;2022-09-09T06:57:27;100343.00;;;13.50
68588;BMP180;55560;52.174;20.996;2022-09-09T07:00:14;100343.20;;;13.60
68588;BMP180;55560;52.174;20.996;2022-09-09T07:02:42;100347.80;;;13.60
68588;BMP180;55560;52.174;20.996;2022-09-09T07:05:10;100345.80;;;13.68
68588;BMP180;55560;52.174;20.996;2022-09-09T07:07:38;100340.00;;;13.60
68588;BMP180;55560;52.174;20.996;2022-09-09T07:10:07;100348.40;;;13.70
68588;BMP180;55560;52.174;20.996;2022-09-09T07:12:36;100349.00;;;13.70
68588;BMP180;55560;52.174;20.996;2022-09-09T07:15:06;100345.80;;;13.70
68588;BMP180;55560;52.174;20.996;2022-09-09T07:17:34;100352.20;;;13.70
68588;BMP180;55560;52.174;20.996;2022-09-09T07:20:02;100349.80;;;13.70
68588;BMP180;55560;52.174;20.996;2022-09-09T07:22:32;100354.00;;;13.74
68588;BMP180;55560;52.174;20.996;2022-09-09T07:25:00;100355.40;;;13.80
68588;BMP180;55560;52.174;20.996;2022-09-09T07:27:29;100362.00;;;13.80
68588;BMP180;55560;52.174;20.996;2022-09-09T07:29:58;100360.60;;;13.90
68588;BMP180;55560;52.174;20.996;2022-09-09T07:32:26;100357.20;;;13.94
68588;BMP180;55560;52.174;20.996;2022-09-09T07:34:53;100364.20;;;14.00
68588;BMP180;55560;52.174;20.996;2022-09-09T07:37:21;100358.60;;;13.90
68588;BMP180;55560;52.174;20.996;2022-09-09T07:39:50;100363.80;;;13.90
68588;BMP180;55560;52.174;20.996;2022-09-09T07:42:19;100361.80;;;13.92
68588;BMP180;55560;52.174;20.996;2022-09-09T07:44:47;100368.20;;;13.96
68588;BMP180;55560;52.174;20.996;2022-09-09T07:47:16;100369.80;;;14.00
68588;BMP180;55560;52.174;20.996;2022-09-09T07:49:47;100367.40;;;14.00
68588;BMP180;55560;52.174;20.996;2022-09-09T07:52:22;100374.40;;;14.02
68588;BMP180;55560;52.174;20.996;2022-09-09T07:54:53;100373.20;;;14.10
68588;BMP180;55560;52.174;20.996;2022-09-09T07:57:21;100375.20;;;14.10
68588;BMP180;55560;52.174;20.996;2022-09-09T07:59:49;100383.80;;;14.10
68588;BMP180;55560;52.174;20.996;2022-09-09T08:02:18;100387.60;;;14.18
68588;BMP180;55560;52.174;20.996;2022-09-09T08:04:46;100389.20;;;14.20
68588;BMP180;55560;52.174;20.996;2022-09-09T08:07:14;100392.00;;;14.20
68588;BMP180;55560;52.174;20.996;2022-09-09T08:09:49;100398.60;;;14.20
68588;BMP180;55560;52.174;20.996;2022-09-09T08:12:21;100400.00;;;14.20
68588;BMP180;55560;52.174;20.996;2022-09-09T08:14:49;100399.20;;;14.20
68588;BMP180;55560;52.174;20.996;2022-09-09T08:17:17;100402.00;;;14.30
68588;BMP180;55560;52.174;20.996;2022-09-09T08:19:45;100400.80;;;14.30
68588;BMP180;55560;52.174;20.996;2022-09-09T08:22:17;100404.40;;;14.30
68588;BMP180;55560;52.174;20.996;2022-09-09T08:24:45;100403.80;;;14.34
68588;BMP180;55560;52.174;20.996;2022-09-09T08:27:13;100405.40;;;14.40
68588;BMP180;55560;52.174;20.996;2022-09-09T08:29:40;100404.40;;;14.42
68588;BMP180;55560;52.174;20.996;2022-09-09T08:32:09;100403.60;;;14.50
68588;BMP180;55560;52.174;20.996;2022-09-09T08:34:37;100402.20;;;14.50
68588;BMP180;55560;52.174;20.996;2022-09-09T08:37:09;100401.40;;;14.50
68588;BMP180;55560;52.174;20.996;2022-09-09T08:39:39;100402.00;;;14.44
68588;BMP180;55560;52.174;20.996;2022-09-09T08:45:26;100410.00;;;14.50
68588;BMP180;55560;52.174;20.996;2022-09-09T08:48:36;100410.20;;;14.50
68588;BMP180;55560;52.174;20.996;2022-09-09T08:51:07;100415.40;;;14.50
68588;BMP180;55560;52.174;20.996;2022-09-09T08:53:48;100409.40;;;14.50
68588;BMP180;55560;52.174;20.996;2022-09-09T08:56:25;100410.80;;;14.50
68588;BMP180;55560;52.174;20.996;2022-09-09T08:59:03;100410.20;;;14.50
68588;BMP180;55560;52.174;20.996;2022-09-09T09:02:05;100408.40;;;14.54
68588;BMP180;55560;52.174;20.996;2022-09-09T09:08:20;100414.80;;;14.60
68588;BMP180;55560;52.174;20.996;2022-09-09T09:10:56;100419.60;;;14.70
68588;BMP180;55560;52.174;20.996;2022-09-09T09:13:52;100418.60;;;14.70
68588;BMP180;55560;52.174;20.996;2022-09-09T09:17:05;100423.40;;;14.72
68588;BMP180;55560;52.174;20.996;2022-09-09T09:19:35;100432.40;;;14.80
68588;BMP180;55560;52.174;20.996;2022-09-09T09:22:21;100436.00;;;14.80
68588;BMP180;55560;52.174;20.996;2022-09-09T09:25:10;100443.80;;;14.80
68588;BMP180;55560;52.174;20.996;2022-09-09T09:27:52;100441.20;;;14.90
68588;BMP180;55560;52.174;20.996;2022-09-09T09:30:35;100441.60;;;14.90
68588;BMP180;55560;52.174;20.996;2022-09-09T09:35:36;100445.00;;;14.98
68588;BMP180;55560;52.174;20.996;2022-09-09T09:38:25;100441.60;;;15.00
68588;BMP180;55560;52.174;20.996;2022-09-09T09:41:15;100443.60;;;15.00
68588;BMP180;55560;52.174;20.996;2022-09-09T09:43:54;100443.60;;;15.00
68588;BMP180;55560;52.174;20.996;2022-09-09T09:46:24;100440.40;;;15.10
68588;BMP180;55560;52.174;20.996;2022-09-09T09:49:05;100445.80;;;15.08
68588;BMP180;55560;52.174;20.996;2022-09-09T09:51:37;100442.00;;;15.00
68588;BMP180;55560;52.174;20.996;2022-09-09T09:56:46;100439.60;;;15.10
68588;BMP180;55560;52.174;20.996;2022-09-09T09:59:42;100439.60;;;15.10
68588;BMP180;55560;52.174;20.996;2022-09-09T10:02:25;100441.60;;;15.20
68588;BMP180;55560;52.174;20.996;2022-09-09T10:05:08;100443.80;;;15.30
68588;BMP180;55560;52.174;20.996;2022-09-09T10:07:41;100439.60;;;15.24
68588;BMP180;55560;52.174;20.996;2022-09-09T10:10:21;100445.60;;;15.12
68588;BMP180;55560;52.174;20.996;2022-09-09T10:13:51;100448.60;;;15.10
68588;BMP180;55560;52.174;20.996;2022-09-09T10:19:25;100454.20;;;15.10
68588;BMP180;55560;52.174;20.996;2022-09-09T10:22:28;100449.60;;;15.10
68588;BMP180;55560;52.174;20.996;2022-09-09T10:25:17;100452.80;;;15.10
68588;BMP180;55560;52.174;20.996;2022-09-09T10:36:40;100471.60;;;15.10
68588;BMP180;55560;52.174;20.996;2022-09-09T10:39:50;100478.20;;;15.20
68588;BMP180;55560;52.174;20.996;2022-09-09T10:42:30;100486.00;;;15.20
68588;BMP180;55560;52.174;20.996;2022-09-09T10:45:23;100495.60;;;15.20
68588;BMP180;55560;52.174;20.996;2022-09-09T10:57:37;100496.00;;;15.20
68588;BMP180;55560;52.174;20.996;2022-09-09T11:03:21;100505.60;;;15.20
68588;BMP180;55560;52.174;20.996;2022-09-09T11:05:56;100507.00;;;15.10
68588;BMP180;55560;52.174;20.996;2022-09-09T11:08:28;100506.40;;;15.10
68588;BMP180;55560;52.174;20.996;2022-09-09T11:11:25;100512.00;;;15.10
68588;BMP180;55560;52.174;20.996;2022-09-09T11:14:05;100513.60;;;15.10
68588;BMP180;55560;52.174;20.996;2022-09-09T11:16:45;100513.40;;;15.20
68588;BMP180;55560;52.174;20.996;2022-09-09T11:19:26;100517.60;;;15.20
68588;BMP180;55560;52.174;20.996;2022-09-09T11:21:57;100517.00;;;15.30
68588;BMP180;55560;52.174;20.996;2022-09-09T11:24:37;100513.00;;;15.30
68588;BMP180;55560;52.174;20.996;2022-09-09T11:27:18;100514.20;;;15.40
68588;BMP180;55560;52.174;20.996;2022-09-09T11:38:29;100521.60;;;15.50
68588;BMP180;55560;52.174;20.996;2022-09-09T11:41:07;100527.00;;;15.48
68588;BMP180;55560;52.174;20.996;2022-09-09T11:43:52;100525.80;;;15.42
68588;BMP180;55560;52.174;20.996;2022-09-09T11:46:32;100520.20;;;15.50
68588;BMP180;55560;52.174;20.996;2022-09-09T11:49:05;100520.00;;;15.50
68588;BMP180;55560;52.174;20.996;2022-09-09T11:51:34;100518.60;;;15.56
68588;BMP180;55560;52.174;20.996;2022-09-09T11:54:31;100523.80;;;15.60
68588;BMP180;55560;52.174;20.996;2022-09-09T11:56:59;100524.60;;;15.70
68588;BMP180;55560;52.174;20.996;2022-09-09T11:59:32;100520.00;;;15.70
68588;BMP180;55560;52.174;20.996;2022-09-09T12:02:15;100519.80;;;15.60
68588;BMP180;55560;52.174;20.996;2022-09-09T12:07:33;100521.40;;;15.60
68588;BMP180;55560;52.174;20.996;2022-09-09T12:10:28;100517.60;;;15.60
68588;BMP180;55560;52.174;20.996;2022-09-09T12:13:26;100523.40;;;15.60
68588;BMP180;55560;52.174;20.996;2022-09-09T12:15:57;100532.80;;;15.60
68588;BMP180;55560;52.174;20.996;2022-09-09T12:18:32;100534.60;;;15.60
68588;BMP180;55560;52.174;20.996;2022-09-09T12:21:20;100532.40;;;15.60
68588;BMP180;55560;52.174;20.996;2022-09-09T12:23:53;100527.20;;;15.60
68588;BMP180;55560;52.174;20.996;2022-09-09T12:26:28;100534.80;;;15.60
68588;BMP180;55560;52.174;20.996;2022-09-09T12:32:15;100529.80;;;15.60
68588;BMP180;55560;52.174;20.996;2022-09-09T12:35:02;100535.00;;;15.60
68588;BMP180;55560;52.174;20.996;2022-09-09T12:37:53;100533.00;;;15.68
68588;BMP180;55560;52.174;20.996;2022-09-09T12:40:33;100531.40;;;15.70
68588;BMP180;55560;52.174;20.996;2022-09-09T12:43:18;100529.00;;;15.70
68588;BMP180;55560;52.174;20.996;2022-09-09T12:45:50;100523.00;;;15.80
68588;BMP180;55560;52.174;20.996;2022-09-09T12:48:44;100519.40;;;15.80
68588;BMP180;55560;52.174;20.996;2022-09-09T12:51:33;100514.80;;;15.90
68588;BMP180;55560;52.174;20.996;2022-09-09T12:54:01;100515.20;;;16.00
68588;BMP180;55560;52.174;20.996;2022-09-09T12:56:31;100518.60;;;16.00
68588;BMP180;55560;52.174;20.996;2022-09-09T12:59:00;100518.60;;;16.10
68588;BMP180;55560;52.174;20.996;2022-09-09T13:01:31;100521.60;;;16.10
68588;BMP180;55560;52.174;20.996;2022-09-09T13:04:01;100519.40;;;16.20
68588;BMP180;55560;52.174;20.996;2022-09-09T13:06:30;100520.40;;;16.20
68588;BMP180;55560;52.174;20.996;2022-09-09T13:09:01;100528.40;;;16.10
68588;BMP180;55560;52.174;20.996;2022-09-09T13:11:49;100523.40;;;16.10
68588;BMP180;55560;52.174;20.996;2022-09-09T13:14:19;100518.00;;;16.10
68588;BMP180;55560;52.174;20.996;2022-09-09T13:16:59;100519.40;;;16.10
68588;BMP180;55560;52.174;20.996;2022-09-09T13:19:32;100514.20;;;16.10
68588;BMP180;55560;52.174;20.996;2022-09-09T13:22:27;100518.40;;;16.10
68588;BMP180;55560;52.174;20.996;2022-09-09T13:25:06;100515.20;;;16.10
68588;BMP180;55560;52.174;20.996;2022-09-09T13:27:52;100514.00;;;16.06
68588;BMP180;55560;52.174;20.996;2022-09-09T13:36:05;100503.40;;;15.92
68588;BMP180;55560;52.174;20.996;2022-09-09T13:39:02;100504.40;;;15.90
68588;BMP180;55560;52.174;20.996;2022-09-09T13:41:36;100513.60;;;15.90
68588;BMP180;55560;52.174;20.996;2022-09-09T13:44:31;100512.60;;;15.88
68588;BMP180;55560;52.174;20.996;2022-09-09T13:49:37;100509.80;;;15.80
68588;BMP180;55560;52.174;20.996;2022-09-09T13:52:11;100512.80;;;15.80
68588;BMP180;55560;52.174;20.996;2022-09-09T13:54:40;100520.40;;;15.70
68588;BMP180;55560;52.174;20.996;2022-09-09T13:57:22;100516.40;;;15.70
68588;BMP180;55560;52.174;20.996;2022-09-09T13:59:53;100512.40;;;15.60
68588;BMP180;55560;52.174;20.996;2022-09-09T14:02:37;100518.40;;;15.60
68588;BMP180;55560;52.174;20.996;2022-09-09T14:05:06;100516.20;;;15.60
68588;BMP180;55560;52.174;20.996;2022-09-09T14:07:34;100516.60;;;15.60
68588;BMP180;55560;52.174;20.996;2022-09-09T14:10:02;100516.80;;;15.60
68588;BMP180;55560;52.174;20.996;2022-09-09T14:12:30;100522.80;;;15.60
68588;BMP180;55560;52.174;20.996;2022-09-09T14:14:58;100526.40;;;15.56
68588;BMP180;55560;52.174;20.996;2022-09-09T14:17:27;100523.60;;;15.52
68588;BMP180;55560;52.174;20.996;2022-09-09T14:19:58;100524.40;;;15.50
68588;BMP180;55560;52.174;20.996;2022-09-09T14:22:26;100527.40;;;15.50
68588;BMP180;55560;52.174;20.996;2022-09-09T14:24:54;100530.60;;;15.50
68588;BMP180;55560;52.174;20.996;2022-09-09T14:27:21;100526.60;;;15.50
68588;BMP180;55560;52.174;20.996;2022-09-09T14:29:49;100533.40;;;15.50
68588;BMP180;55560;52.174;20.996;2022-09-09T14:32:17;100535.80;;;15.56
68588;BMP180;55560;52.174;20.996;2022-09-09T14:34:45;100536.00;;;15.60
68588;BMP180;55560;52.174;20.996;2022-09-09T14:37:13;100534.80;;;15.60
68588;BMP180;55560;52.174;20.996;2022-09-09T14:39:41;100538.00;;;15.58
68588;BMP180;55560;52.174;20.996;2022-09-09T14:42:12;100530.80;;;15.50
68588;BMP180;55560;52.174;20.996;2022-09-09T14:44:40;100524.40;;;15.50
68588;BMP180;55560;52.174;20.996;2022-09-09T14:47:08;100526.00;;;15.60
68588;BMP180;55560;52.174;20.996;2022-09-09T14:49:37;100525.40;;;15.60
68588;BMP180;55560;52.174;20.996;2022-09-09T14:52:09;100531.40;;;15.60
68588;BMP180;55560;52.174;20.996;2022-09-09T14:54:37;100536.20;;;15.60
68588;BMP180;55560;52.174;20.996;2022-09-09T14:57:05;100533.00;;;15.60
68588;BMP180;55560;52.174;20.996;2022-09-09T14:59:33;100526.80;;;15.60
68588;BMP180;55560;52.174;20.996;2022-09-09T15:02:02;100529.60;;;15.60
68588;BMP180;55560;52.174;20.996;2022-09-09T15:04:31;100535.00;;;15.60
68588;BMP180;55560;52.174;20.996;2022-09-09T15:06:59;100534.80;;;15.60
68588;BMP180;55560;52.174;20.996;2022-09-09T15:09:27;100532.20;;;15.70
68588;BMP180;55560;52.174;20.996;2022-09-09T15:11:55;100529.00;;;15.70
68588;BMP180;55560;52.174;20.996;2022-09-09T15:14:23;100525.80;;;15.72
68588;BMP180;55560;52.174;20.996;2022-09-09T15:16:52;100517.80;;;15.70
68588;BMP180;55560;52.174;20.996;2022-09-09T15:19:20;100515.40;;;15.70
68588;BMP180;55560;52.174;20.996;2022-09-09T15:21:48;100526.40;;;15.70
68588;BMP180;55560;52.174;20.996;2022-09-09T15:24:16;100527.40;;;15.76
68588;BMP180;55560;52.174;20.996;2022-09-09T15:26:45;100533.60;;;15.80
68588;BMP180;55560;52.174;20.996;2022-09-09T15:29:12;100534.60;;;15.76
68588;BMP180;55560;52.174;20.996;2022-09-09T15:31:40;100531.60;;;15.72
68588;BMP180;55560;52.174;20.996;2022-09-09T15:34:08;100527.40;;;15.78
68588;BMP180;55560;52.174;20.996;2022-09-09T15:36:39;100534.80;;;15.70
68588;BMP180;55560;52.174;20.996;2022-09-09T15:39:10;100545.20;;;15.70
68588;BMP180;55560;52.174;20.996;2022-09-09T15:41:45;100542.40;;;15.76
68588;BMP180;55560;52.174;20.996;2022-09-09T15:44:15;100543.00;;;15.70
68588;BMP180;55560;52.174;20.996;2022-09-09T15:46:46;100537.60;;;15.70
68588;BMP180;55560;52.174;20.996;2022-09-09T15:49:25;100532.20;;;15.70
68588;BMP180;55560;52.174;20.996;2022-09-09T15:51:59;100527.20;;;15.70
68588;BMP180;55560;52.174;20.996;2022-09-09T15:54:34;100525.00;;;15.80
68588;BMP180;55560;52.174;20.996;2022-09-09T15:57:06;100529.80;;;15.84